Aérodrome :
LOGIN :

S'inscrire | Disclaimer

   EN    FR    IT 

 










Légende :    VFR   VFR Marginal   IFR   IFR Intensif   IFR Très Intensif
Visi : 
Plafond : 
>= 8 km
>= 3000ft
5 à 8 km
1000 à 3000 ft
1500m à 5 km
500 à 1000 ft
800 à 1500m
200 à 500 ft
< 800m
< 200 ft
Symboles :   Orages  Brouillard  Fortes neiges  Fortes précipitations  Vent > 20 kt
SIGMETs :   Divers  Orages  Givrage  Turbulence  Onde Orograph.  Cendres Volcan.







- Altitude de l'aérodrome : 30 ft
- Code IATA : CFN


EIDL - Donegal

DERNIER METAR :
  • 121530Z 28023G33KT 9999 -RA FEW018 BKN032 10/05 Q0995

METARs EXPIRÉS :
  • 121500Z 20020KT 4000 -RA FEW010 OVC013 06/05 Q0995
  • 121430Z 19024KT 9999 FEW011 OVC017 06/04 Q0995
  • 121400Z 18019KT 9999 BKN012 OVC031 05/04 Q0995
  • 121330Z 18019KT 3900 -DZ OVC011 05/04 Q0996 REDZ
  • 121300Z 18017KT 3100 -RA BKN012 OVC017 05/04 Q0996

TAF TAF EIDL
Valide du 12 à 15h jusqu'au 12 à 21h UTC


121400Z 1215/1221 24018G30KT 9999 BKN020
BECMG 1215/1217 28017G28KT
PROB30
TEMPO 1215/1216 4000 -RA BKN010
Pas de NOTAMs connus pour ce terrain.
1 SIGMET publié pour la FIR Shannon (EISN) :
 
Turbulence forte
EISN SIGMET 03 VALID 121430/121830 EINN
EISN SHANNON FIR/UIR SEV TURB FCST WI N5100 W00800 - N5420 W01200 - N5434 W01000 - N5445 W00900 - N5425 W00810 - N5215 W00540 - N5100 W00800 FL220/410 MOV ENE AT 18KT NC=



MET'MAP, la Météo Aéronautique d'un coup d'oeil ! - Copyright ORBIFLY Décembre 2007 - Disclaimer

ORBIFLY MET'MAP TEAM :

Programmation & Développement : Alexandra Zaïnal
Conception & Développement : Baudouin d'Aumeries
Co-Programmation & Développement : Marc-Olivier Méhu
Soutien technique & logistique : Manuel Goepfert

Contact : metmap@orbifly.com




SOURCES & CREDITS :

   NOAA